Sutherland Springs, Texas
Current Conditions -  °F | °C
As of 2:36 PM on Friday 21 Nov 2014 (Local Time) from KRND Reporting Station
Overcast Overcast  
Wind Chill: 72°   Ceiling: 1400
Heat Index: 72°   Visibility: 10mi
Dew Point: 66°   Wind: 12mph
Humidity: 83%   Direction: 180°S
Pressure: 30.01"   Gusts: NA
Location:  29.27°N, 98.06°W
Report Text: KRND 212036Z AUTO 18010KT 10SM OVC014 22/19 A3001 RMK AO2 DZB2028E2031
Loading
Personal Weather Stations






























Interactive Weather Map New forecast layout! Learn more

10-Day Weather Forecast

Advertisements
Track Severe Weather on mobile